createdAt,value
2023-03-12T00:02:09.126Z,11.40
2023-03-12T00:04:57.901Z,12.10
2023-03-12T00:07:46.629Z,11.70
2023-03-12T00:10:36.102Z,11.50
2023-03-12T00:13:26.233Z,11.40
2023-03-12T00:16:16.561Z,10.80
2023-03-12T00:19:05.287Z,9.90
2023-03-12T00:21:53.964Z,10.30
2023-03-12T00:24:42.649Z,8.60
2023-03-12T00:27:31.339Z,9.00
2023-03-12T00:30:21.748Z,7.70
2023-03-12T00:33:10.612Z,7.90
2023-03-12T00:36:02.292Z,8.40
2023-03-12T00:38:51.055Z,9.50
2023-03-12T00:41:39.718Z,9.00
2023-03-12T00:44:28.652Z,8.40
2023-03-12T00:47:18.737Z,8.50
2023-03-12T00:50:08.072Z,8.70
2023-03-12T00:52:56.818Z,8.40
2023-03-12T00:55:45.595Z,9.10
2023-03-12T00:58:34.374Z,9.20
2023-03-12T01:01:23.086Z,8.00
2023-03-12T01:04:13.730Z,8.80
2023-03-12T01:07:02.479Z,8.80
2023-03-12T01:09:51.211Z,11.10
2023-03-12T01:12:39.956Z,11.60
2023-03-12T01:15:29.334Z,12.50
2023-03-12T01:18:18.198Z,11.30
2023-03-12T01:21:08.589Z,11.10
2023-03-12T01:23:57.824Z,10.20
2023-03-12T01:26:46.505Z,10.10
2023-03-12T01:29:35.190Z,8.90
2023-03-12T01:32:23.967Z,8.10
2023-03-12T01:35:12.880Z,9.10
2023-03-12T01:38:03.122Z,9.40
2023-03-12T01:40:51.866Z,10.00
2023-03-12T01:43:40.744Z,10.00
2023-03-12T01:46:33.171Z,9.10
2023-03-12T01:49:25.435Z,8.60
2023-03-12T01:52:16.666Z,10.30
2023-03-12T01:55:10.597Z,12.20
2023-03-12T01:57:59.978Z,12.50
2023-03-12T02:00:48.824Z,11.90
2023-03-12T02:03:38.397Z,11.30
2023-03-12T02:06:34.086Z,12.10
2023-03-12T02:09:23.305Z,10.10
2023-03-12T02:12:13.726Z,10.10
2023-03-12T02:15:02.509Z,10.50
2023-03-12T02:17:51.229Z,10.20
2023-03-12T02:20:47.998Z,8.20
2023-03-12T02:23:43.335Z,9.20
2023-03-12T02:26:34.406Z,9.00
2023-03-12T02:29:25.546Z,7.10
2023-03-12T02:32:21.510Z,7.40
2023-03-12T02:35:11.070Z,8.40
2023-03-12T02:38:01.382Z,7.50
2023-03-12T02:40:51.178Z,7.30
2023-03-12T02:43:41.960Z,6.00
2023-03-12T02:46:33.802Z,5.50
2023-03-12T02:49:24.625Z,5.40
2023-03-12T02:52:13.298Z,5.10
2023-03-12T02:55:02.001Z,5.50
2023-03-12T02:57:50.643Z,4.90
2023-03-12T03:00:40.796Z,4.80
2023-03-12T03:03:29.428Z,3.80
2023-03-12T03:06:18.540Z,4.10
2023-03-12T03:09:07.279Z,4.10
2023-03-12T03:11:55.974Z,5.10
2023-03-12T03:14:44.671Z,4.40
2023-03-12T03:17:34.741Z,4.90
2023-03-12T03:20:24.810Z,6.10
2023-03-12T03:23:13.531Z,4.90
2023-03-12T03:26:02.277Z,6.10
2023-03-12T03:28:51.403Z,5.60
2023-03-12T03:31:40.218Z,5.20
2023-03-12T03:34:30.389Z,6.00
2023-03-12T03:37:19.139Z,5.60
2023-03-12T03:40:11.837Z,6.50
2023-03-12T03:43:00.560Z,5.80
2023-03-12T03:45:49.404Z,5.90
2023-03-12T03:48:38.135Z,5.00
2023-03-12T03:51:28.460Z,5.70
2023-03-12T03:54:17.451Z,5.60
2023-03-12T03:57:06.414Z,5.30
2023-03-12T03:59:55.251Z,6.20
2023-03-12T04:02:43.957Z,7.10
2023-03-12T04:05:33.507Z,6.20
2023-03-12T04:08:23.694Z,7.00
2023-03-12T04:11:14.969Z,7.70
2023-03-12T04:14:03.853Z,6.90
2023-03-12T04:16:52.653Z,7.60
2023-03-12T04:19:41.448Z,8.20
2023-03-12T04:22:30.119Z,7.90
2023-03-12T04:25:20.473Z,8.70
2023-03-12T04:28:09.237Z,9.70
2023-03-12T04:30:59.786Z,9.20
2023-03-12T04:33:48.560Z,9.10
2023-03-12T04:36:37.555Z,9.40
2023-03-12T04:39:26.393Z,10.30
2023-03-12T04:42:16.560Z,10.20
2023-03-12T04:45:06.399Z,11.60
2023-03-12T04:47:55.076Z,10.80
2023-03-12T04:50:44.705Z,11.20
2023-03-12T04:53:33.514Z,13.60
2023-03-12T04:56:22.278Z,17.30
2023-03-12T04:59:12.367Z,18.80
2023-03-12T05:02:01.054Z,23.10
2023-03-12T05:04:49.756Z,23.50
2023-03-12T05:07:38.436Z,27.50
2023-03-12T05:10:27.430Z,30.40
2023-03-12T05:13:18.300Z,35.80
2023-03-12T05:16:09.188Z,40.70
2023-03-12T05:18:57.867Z,46.40
2023-03-12T05:21:46.994Z,53.00
2023-03-12T05:24:36.711Z,58.70
2023-03-12T05:27:29.021Z,63.40
2023-03-12T05:30:19.164Z,66.90
2023-03-12T05:33:09.318Z,70.90
2023-03-12T05:35:58.262Z,73.00
2023-03-12T05:38:47.062Z,75.70
2023-03-12T05:41:35.800Z,77.90
2023-03-12T05:44:25.028Z,80.10
2023-03-12T05:47:13.816Z,81.70
2023-03-12T05:50:04.172Z,83.30
2023-03-12T05:52:53.382Z,83.90
2023-03-12T05:55:42.117Z,84.40
2023-03-12T05:58:30.878Z,84.50
2023-03-12T06:01:22.477Z,82.10
2023-03-12T06:04:11.172Z,81.80
2023-03-12T06:07:01.300Z,80.80
2023-03-12T06:09:49.990Z,80.60
2023-03-12T06:12:38.701Z,80.70
2023-03-12T06:15:27.484Z,82.00
2023-03-12T06:18:16.372Z,83.40
2023-03-12T06:21:12.922Z,83.70
2023-03-12T06:24:03.645Z,84.60
2023-03-12T06:26:52.327Z,85.30
2023-03-12T06:29:41.279Z,84.80
2023-03-12T06:32:30.262Z,86.10
2023-03-12T06:35:19.123Z,85.40
2023-03-12T06:38:07.869Z,86.60
2023-03-12T06:41:00.190Z,87.60
2023-03-12T06:43:49.663Z,88.60
2023-03-12T06:46:38.409Z,90.00
2023-03-12T06:49:27.515Z,91.00
2023-03-12T06:52:16.243Z,92.20
2023-03-12T06:55:05.491Z,93.20
2023-03-12T06:57:55.598Z,93.30
2023-03-12T07:00:44.318Z,95.00
2023-03-12T07:03:33.160Z,95.10
2023-03-12T07:06:23.425Z,95.00
2023-03-12T07:09:12.265Z,96.80
2023-03-12T07:12:00.973Z,96.90
2023-03-12T07:14:51.075Z,96.10
2023-03-12T07:17:40.013Z,96.40
2023-03-12T07:20:28.805Z,96.30
2023-03-12T07:23:18.074Z,97.20
2023-03-12T07:26:07.539Z,97.10
2023-03-12T07:28:56.248Z,97.80
2023-03-12T07:31:46.393Z,98.10
2023-03-12T07:34:35.356Z,97.90
2023-03-12T07:37:24.251Z,98.00
2023-03-12T07:40:13.984Z,98.30
2023-03-12T07:43:02.707Z,98.20
2023-03-12T07:45:51.722Z,99.20
2023-03-12T07:48:44.194Z,99.40
2023-03-12T07:51:33.240Z,99.90
2023-03-12T07:54:29.030Z,99.90
2023-03-12T07:57:18.187Z,99.90
2023-03-12T08:00:10.492Z,99.90
2023-03-12T08:02:59.733Z,99.90
2023-03-12T08:05:57.974Z,99.90
2023-03-12T08:08:46.962Z,99.90
2023-03-12T08:11:37.613Z,99.90
2023-03-12T08:14:26.743Z,99.90
2023-03-12T08:17:15.563Z,99.90
2023-03-12T08:20:06.056Z,99.90
2023-03-12T08:22:56.618Z,99.90
2023-03-12T08:25:47.535Z,99.90
2023-03-12T08:28:36.641Z,99.90
2023-03-12T08:31:25.450Z,99.90
2023-03-12T08:34:14.186Z,99.90
2023-03-12T08:37:03.084Z,99.90
2023-03-12T08:39:53.525Z,99.90
2023-03-12T08:42:42.869Z,99.90
2023-03-12T08:45:32.616Z,99.90
2023-03-12T08:48:21.441Z,99.90
2023-03-12T08:51:10.540Z,99.90
2023-03-12T08:53:59.354Z,99.90
2023-03-12T08:56:53.137Z,99.90
2023-03-12T08:59:42.186Z,99.90
2023-03-12T09:02:30.962Z,99.90
2023-03-12T09:05:20.718Z,99.90
2023-03-12T09:08:09.557Z,99.90
2023-03-12T09:10:58.327Z,99.90
2023-03-12T09:14:18.692Z,99.90
2023-03-12T09:16:57.319Z,99.90
2023-03-12T09:19:46.575Z,99.90
2023-03-12T09:22:37.077Z,99.90
2023-03-12T09:25:27.174Z,99.90
2023-03-12T09:28:18.813Z,99.90
2023-03-12T09:31:13.991Z,99.60
2023-03-12T09:34:08.493Z,99.90
2023-03-12T09:36:57.561Z,99.90
2023-03-12T09:39:46.316Z,99.90
2023-03-12T09:42:42.716Z,99.90
2023-03-12T09:45:35.770Z,99.90
2023-03-12T09:48:33.169Z,99.90
2023-03-12T09:51:25.534Z,99.90
2023-03-12T09:54:24.306Z,99.90
2023-03-12T09:57:17.751Z,99.90
2023-03-12T10:00:10.688Z,99.90
2023-03-12T10:03:12.161Z,99.90
2023-03-12T10:06:12.691Z,99.90
2023-03-12T10:09:28.237Z,99.90
2023-03-12T10:12:25.836Z,99.90
2023-03-12T10:15:33.459Z,99.90
2023-03-12T10:18:34.617Z,99.90
2023-03-12T10:21:32.688Z,99.90
2023-03-12T10:24:31.688Z,99.90
2023-03-12T10:27:30.988Z,99.90
2023-03-12T10:30:24.037Z,99.90
2023-03-12T10:33:17.233Z,99.90
2023-03-12T10:36:16.234Z,99.90
2023-03-12T10:39:11.706Z,99.90
2023-03-12T10:42:02.611Z,99.90
2023-03-12T10:44:55.353Z,99.90
2023-03-12T10:47:44.963Z,99.90
2023-03-12T10:50:36.561Z,99.90
2023-03-12T10:53:30.522Z,99.90
2023-03-12T10:56:22.030Z,99.90
2023-03-12T10:59:22.596Z,99.90
2023-03-12T11:02:34.344Z,99.90
2023-03-12T11:05:25.554Z,99.90
2023-03-12T11:08:23.532Z,99.90
2023-03-12T11:11:13.613Z,99.90
2023-03-12T11:14:16.925Z,99.90
2023-03-12T11:17:22.408Z,99.90
2023-03-12T11:20:26.404Z,99.90
2023-03-12T11:23:16.340Z,99.90
2023-03-12T11:26:11.465Z,99.90
2023-03-12T11:29:04.462Z,99.90
2023-03-12T11:32:04.886Z,99.90
2023-03-12T11:34:54.564Z,99.90
2023-03-12T11:37:52.893Z,99.90
2023-03-12T11:40:56.233Z,99.90
2023-03-12T11:44:04.076Z,99.90
2023-03-12T11:47:05.162Z,99.90
2023-03-12T11:50:11.909Z,99.90
2023-03-12T11:53:15.381Z,99.90
2023-03-12T11:56:18.501Z,99.90
2023-03-12T11:59:32.502Z,99.90
2023-03-12T12:02:51.704Z,99.90
2023-03-12T12:05:50.807Z,99.90
2023-03-12T12:08:59.400Z,99.90
2023-03-12T12:12:01.010Z,99.90
2023-03-12T12:15:05.342Z,99.90
2023-03-12T12:18:03.656Z,99.90
2023-03-12T12:21:00.409Z,99.30
2023-03-12T12:24:00.254Z,97.50
2023-03-12T12:26:56.763Z,98.80
2023-03-12T12:30:07.684Z,97.30
2023-03-12T12:33:29.865Z,98.20
2023-03-12T12:36:44.554Z,96.40
2023-03-12T12:39:44.593Z,96.50
2023-03-12T12:46:22.666Z,97.80
2023-03-12T13:02:34.128Z,89.50
2023-03-12T13:05:27.388Z,86.70
2023-03-12T13:08:51.679Z,87.40
2023-03-12T13:11:44.340Z,85.80
2023-03-12T13:14:42.217Z,86.50
2023-03-12T13:45:24.338Z,81.90
2023-03-12T13:48:17.493Z,81.10
2023-03-12T13:51:17.617Z,83.30
2023-03-12T13:54:06.701Z,82.00
2023-03-12T13:57:01.697Z,82.90
2023-03-12T14:00:00.787Z,82.20
2023-03-12T14:02:55.853Z,80.50
2023-03-12T14:05:53.526Z,82.40
2023-03-12T14:08:57.940Z,82.50
2023-03-12T14:11:56.295Z,78.90
2023-03-12T14:15:13.494Z,76.90
2023-03-12T14:18:13.091Z,76.80
2023-03-12T14:21:03.873Z,78.20
2023-03-12T14:23:57.034Z,78.50
2023-03-12T14:26:47.773Z,76.70
2023-03-12T14:29:39.570Z,76.20
2023-03-12T14:32:32.807Z,75.10
2023-03-12T14:35:25.966Z,72.70
2023-03-12T14:38:19.093Z,70.50
2023-03-12T14:41:14.712Z,73.90
2023-03-12T14:44:18.896Z,73.20
2023-03-12T14:47:10.453Z,73.50
2023-03-12T14:49:59.616Z,74.00
2023-03-12T14:52:49.920Z,73.00
2023-03-12T14:55:38.749Z,72.30
2023-03-12T14:58:27.842Z,72.80
2023-03-12T15:01:21.576Z,70.20
2023-03-12T15:04:17.830Z,71.60
2023-03-12T15:07:10.874Z,71.40
2023-03-12T15:10:01.555Z,67.90
2023-03-12T15:12:51.447Z,66.80
2023-03-12T15:15:42.838Z,67.70
2023-03-12T15:18:34.119Z,64.30
2023-03-12T15:21:23.122Z,66.40
2023-03-12T15:24:14.484Z,68.30
2023-03-12T15:27:32.209Z,66.40
2023-03-12T15:30:26.014Z,66.10
2023-03-12T15:33:25.738Z,66.50
2023-03-12T15:36:28.043Z,65.40
2023-03-12T15:39:26.505Z,64.60
2023-03-12T15:42:19.651Z,63.20
2023-03-12T15:45:20.059Z,64.10
2023-03-12T15:48:19.743Z,62.10
2023-03-12T15:51:14.919Z,65.00
2023-03-12T15:54:06.241Z,65.00
2023-03-12T15:56:55.602Z,65.00
2023-03-12T15:59:44.262Z,65.20
2023-03-12T16:02:39.023Z,67.20
2023-03-12T16:05:31.509Z,65.10
2023-03-12T16:08:22.773Z,62.90
2023-03-12T16:11:17.746Z,55.70
2023-03-12T16:14:13.609Z,56.00
2023-03-12T16:17:02.337Z,54.50
2023-03-12T16:19:52.412Z,53.70
2023-03-12T16:22:41.678Z,52.20
2023-03-12T16:25:30.424Z,53.00
2023-03-12T16:28:22.473Z,52.80
2023-03-12T16:31:14.699Z,51.40
2023-03-12T16:34:03.425Z,53.70
2023-03-12T16:36:53.955Z,51.60
2023-03-12T16:39:46.312Z,51.60
2023-03-12T16:42:35.311Z,53.10
2023-03-12T16:45:24.461Z,53.00
2023-03-12T16:48:16.221Z,55.20
2023-03-12T16:51:06.330Z,54.10
2023-03-12T16:54:08.913Z,53.80
2023-03-12T16:56:59.217Z,54.60
2023-03-12T16:59:47.980Z,53.20
2023-03-12T17:02:37.393Z,50.20
2023-03-12T17:05:26.414Z,51.30
2023-03-12T17:08:16.082Z,50.10
2023-03-12T17:11:16.359Z,51.60
2023-03-12T17:14:11.541Z,51.40
2023-03-12T17:17:00.810Z,51.30
2023-03-12T17:19:49.616Z,52.20
2023-03-12T17:22:38.424Z,51.10
2023-03-12T17:25:29.647Z,51.80
2023-03-12T17:28:19.777Z,52.20
2023-03-12T17:31:08.537Z,52.00
2023-03-12T17:33:57.378Z,50.30
2023-03-12T17:36:46.059Z,53.10
2023-03-12T17:39:35.716Z,52.90
2023-03-12T17:42:24.422Z,52.50
2023-03-12T17:45:14.569Z,52.70
2023-03-12T17:48:03.340Z,51.70
2023-03-12T17:50:52.007Z,53.00
2023-03-12T17:53:42.097Z,53.80
2023-03-12T17:56:30.878Z,53.10
2023-03-12T17:59:19.552Z,54.10
2023-03-12T18:02:11.897Z,53.50
2023-03-12T18:05:00.707Z,53.50
2023-03-12T18:07:50.604Z,55.10
2023-03-12T18:10:40.684Z,54.10
2023-03-12T18:13:29.354Z,53.10
2023-03-12T18:16:18.469Z,54.00
2023-03-12T18:19:08.603Z,51.30
2023-03-12T18:21:57.319Z,50.30
2023-03-12T18:24:46.028Z,49.40
2023-03-12T18:27:34.753Z,49.10
2023-03-12T18:30:23.497Z,48.40
2023-03-12T18:33:12.166Z,48.50
2023-03-12T18:36:02.393Z,49.10
2023-03-12T18:38:51.121Z,49.30
2023-03-12T18:41:41.930Z,49.30
2023-03-12T18:44:30.917Z,48.90
2023-03-12T18:47:19.754Z,48.80
2023-03-12T18:50:09.422Z,50.80
2023-03-12T18:53:00.665Z,51.10
2023-03-12T18:55:53.738Z,51.80
2023-03-12T18:58:42.411Z,52.00
2023-03-12T19:01:31.141Z,52.40
2023-03-12T19:04:20.816Z,51.10
2023-03-12T19:07:10.774Z,52.90
2023-03-12T19:10:00.946Z,53.50
2023-03-12T19:12:53.087Z,53.50
2023-03-12T19:15:42.532Z,54.30
2023-03-12T19:18:31.234Z,54.10
2023-03-12T19:21:19.918Z,55.50
2023-03-12T19:24:08.706Z,54.40
2023-03-12T19:26:58.817Z,54.30
2023-03-12T19:29:47.526Z,55.10
2023-03-12T19:32:43.331Z,55.60
2023-03-12T19:35:33.148Z,55.10
2023-03-12T19:38:22.021Z,56.70
2023-03-12T19:41:11.011Z,55.90
2023-03-12T19:44:01.087Z,56.00
2023-03-12T19:46:49.842Z,54.30
2023-03-12T19:49:38.813Z,55.40
2023-03-12T19:52:27.486Z,54.20
2023-03-12T19:55:16.614Z,52.80
2023-03-12T19:58:05.382Z,52.10
2023-03-12T20:00:55.998Z,53.20
2023-03-12T20:03:45.395Z,52.20
2023-03-12T20:06:34.146Z,55.10
2023-03-12T20:09:22.785Z,55.40
2023-03-12T20:12:11.458Z,55.60
2023-03-12T20:15:00.180Z,56.80
2023-03-12T20:17:50.305Z,57.80
2023-03-12T20:20:39.024Z,57.30
2023-03-12T20:23:27.722Z,57.00
2023-03-12T20:26:16.436Z,57.90
2023-03-12T20:29:05.121Z,58.70
2023-03-12T20:31:54.118Z,59.50
2023-03-12T20:34:44.218Z,58.10
2023-03-12T20:37:32.912Z,57.50
2023-03-12T20:40:21.600Z,57.30
2023-03-12T20:43:10.240Z,57.40
2023-03-12T20:45:59.002Z,57.70
2023-03-12T20:48:47.722Z,57.70
2023-03-12T20:51:37.811Z,57.80
2023-03-12T20:54:27.431Z,58.80
2023-03-12T20:57:16.118Z,58.60
2023-03-12T21:00:05.653Z,57.30
2023-03-12T21:02:54.371Z,56.40
2023-03-12T21:05:43.292Z,57.40
2023-03-12T21:08:34.490Z,57.30
2023-03-12T21:11:23.347Z,56.70
2023-03-12T21:14:12.021Z,57.20
2023-03-12T21:17:00.836Z,58.00
2023-03-12T21:19:49.550Z,58.90
2023-03-12T21:22:38.860Z,58.90
2023-03-12T21:25:29.719Z,59.00
2023-03-12T21:28:18.386Z,58.50
2023-03-12T21:31:08.253Z,56.90
2023-03-12T21:33:57.280Z,55.80
2023-03-12T21:36:46.486Z,56.90
2023-03-12T21:39:36.066Z,56.20
2023-03-12T21:42:26.217Z,55.80
2023-03-12T21:45:14.876Z,58.00
2023-03-12T21:48:03.631Z,57.70
2023-03-12T21:50:52.333Z,58.50
2023-03-12T21:53:41.268Z,59.10
2023-03-12T21:56:30.432Z,59.10
2023-03-12T21:59:20.537Z,59.80
2023-03-12T22:02:12.018Z,61.00
2023-03-12T22:05:01.379Z,62.20
2023-03-12T22:07:50.088Z,62.10
2023-03-12T22:10:38.738Z,62.40
2023-03-12T22:13:27.449Z,61.80
2023-03-12T22:16:18.043Z,62.80
2023-03-12T22:19:07.517Z,63.40
2023-03-12T22:21:56.236Z,64.40
2023-03-12T22:24:44.887Z,64.60
2023-03-12T22:27:33.671Z,66.20
2023-03-12T22:30:22.635Z,66.40
2023-03-12T22:33:13.320Z,66.90
2023-03-12T22:36:05.213Z,67.90
2023-03-12T22:38:54.253Z,69.10
2023-03-12T22:41:42.893Z,70.40
2023-03-12T22:44:31.657Z,71.50
2023-03-12T22:47:20.330Z,71.20
2023-03-12T22:50:12.295Z,72.70
2023-03-12T22:53:01.427Z,74.20
2023-03-12T22:55:58.194Z,74.50
2023-03-12T22:58:46.972Z,75.60
2023-03-12T23:01:35.752Z,76.00
2023-03-12T23:04:24.557Z,75.20
2023-03-12T23:07:17.463Z,74.70
2023-03-12T23:10:07.562Z,75.70
2023-03-12T23:12:56.345Z,75.60
2023-03-12T23:15:44.979Z,73.10
2023-03-12T23:18:34.560Z,72.60
2023-03-12T23:21:24.589Z,71.10
2023-03-12T23:24:14.739Z,71.10
2023-03-12T23:27:03.565Z,70.10
2023-03-12T23:29:52.494Z,70.20
2023-03-12T23:32:41.268Z,69.90
2023-03-12T23:35:31.150Z,69.90
2023-03-12T23:38:20.131Z,70.50
2023-03-12T23:41:13.512Z,70.30
2023-03-12T23:44:02.578Z,69.90
2023-03-12T23:46:51.315Z,69.00
2023-03-12T23:49:40.004Z,69.60
2023-03-12T23:52:28.706Z,68.20
2023-03-12T23:55:17.574Z,68.80
2023-03-12T23:58:07.719Z,69.20
